Time;durP1;ratioP1;P1;durP2;ratioP2;P2;SDS_P1;SDS_P2;PMS_P1;PMS_P2;Temp;Humidity;BMP_temperature;BMP_pressure;BME280_temperature;BME280_humidity;BME280_pressure;Samples;Min_cycle;Max_cycle;Signal;HPM_P1;HPM_P2
2022/01/04 00:02:14;;;;;;;18.73;8.30;;;8.70;99.90;;;;;;4974295;28;20442;-94
2022/01/04 00:04:43;;;;;;;25.40;9.67;;;7.70;99.90;;;;;;4960046;28;20058;-93
2022/01/04 00:07:11;;;;;;;21.77;8.77;;;7.80;99.90;;;;;;4955793;29;20051;-92
2022/01/04 00:09:45;;;;;;;19.83;8.50;;;7.80;99.90;;;;;;4955370;29;20047;-93
2022/01/04 00:15:15;;;;;;;19.07;7.57;;;8.00;99.90;;;;;;5032051;28;20042;-93
2022/01/04 00:17:44;;;;;;;21.93;8.77;;;7.90;99.90;;;;;;4996609;28;20104;-93
2022/01/04 00:20:16;;;;;;;26.17;8.17;;;8.20;99.90;;;;;;4997402;28;20041;-93
2022/01/04 00:22:48;;;;;;;20.30;8.20;;;8.40;99.90;;;;;;4996817;28;20056;-92
2022/01/04 00:25:17;;;;;;;18.13;7.43;;;7.50;99.90;;;;;;4996764;28;20095;-93
2022/01/04 00:27:49;;;;;;;22.93;7.70;;;8.40;99.90;;;;;;4996852;28;20379;-93
2022/01/04 00:30:18;;;;;;;23.20;7.77;;;7.10;99.90;;;;;;4996672;28;20050;-93
2022/01/04 00:33:21;;;;;;;18.60;8.23;;;8.00;99.90;;;;;;4996516;28;20072;-93
2022/01/04 00:36:30;;;;;;;20.57;8.07;;;8.20;99.90;;;;;;4996549;28;20042;-93
2022/01/04 00:38:59;;;;;;;26.13;8.40;;;7.10;99.90;;;;;;5016480;22;20136;-93
2022/01/04 00:41:34;;;;;;;20.10;8.73;;;8.00;99.90;;;;;;5171950;22;20060;-93
2022/01/04 00:44:03;;;;;;;20.73;8.83;;;8.40;99.90;;;;;;5060972;22;20157;-92
2022/01/04 00:46:32;;;;;;;22.13;9.23;;;8.10;99.90;;;;;;5003562;23;20051;-93
2022/01/04 00:52:04;;;;;;;20.40;9.40;;;7.20;99.90;;;;;;4958072;28;20043;-92
2022/01/04 00:57:07;;;;;;;25.47;9.83;;;8.10;99.90;;;;;;5017378;22;20426;-93
2022/01/04 01:02:04;;;;;;;21.03;9.57;;;8.00;99.90;;;;;;5050594;22;20068;-93
2022/01/04 01:04:37;;;;;;;21.30;9.63;;;7.90;99.90;;;;;;4996596;23;20046;-93
2022/01/04 01:07:05;;;;;;;22.45;9.98;;;7.90;99.90;;;;;;5006015;23;20485;-93
2022/01/04 01:09:40;;;;;;;22.77;10.20;;;8.10;99.90;;;;;;5016278;28;20053;-93
2022/01/04 01:12:34;;;;;;;19.87;10.50;;;8.00;99.90;;;;;;5031892;28;20092;-93
2022/01/04 01:15:07;;;;;;;24.57;10.30;;;8.40;99.90;;;;;;5014987;28;20292;-94
2022/01/04 01:17:37;;;;;;;21.40;9.75;;;7.90;99.90;;;;;;5015939;28;20156;-93
2022/01/04 01:20:08;;;;;;;21.27;10.10;;;7.80;99.90;;;;;;5015584;28;20448;-93
2022/01/04 01:22:37;;;;;;;22.33;10.63;;;8.00;99.90;;;;;;5015380;28;20048;-93
2022/01/04 01:25:07;;;;;;;21.63;9.10;;;8.20;99.90;;;;;;5015411;28;20481;-93
2022/01/04 01:27:41;;;;;;;25.43;10.73;;;7.90;99.90;;;;;;5014614;28;20046;-93
2022/01/04 01:30:09;;;;;;;24.15;10.25;;;8.10;99.90;;;;;;5015348;28;20053;-93
2022/01/04 01:32:40;;;;;;;25.97;10.83;;;7.90;99.90;;;;;;5015565;28;20083;-93
2022/01/04 01:35:09;;;;;;;25.73;11.03;;;8.50;99.90;;;;;;5014352;28;20064;-93
2022/01/04 01:37:40;;;;;;;24.57;11.27;;;7.60;99.90;;;;;;5014741;28;20056;-93
2022/01/04 01:40:10;;;;;;;24.97;11.57;;;8.60;99.90;;;;;;5015040;28;20128;-92
2022/01/04 01:42:42;;;;;;;24.10;10.90;;;7.90;99.90;;;;;;5016136;28;20073;-93
2022/01/04 01:45:13;;;;;;;27.03;11.27;;;8.30;99.90;;;;;;5039440;28;20041;-93
2022/01/04 01:47:42;;;;;;;23.17;11.13;;;7.60;99.90;;;;;;5026241;28;20049;-92
2022/01/04 01:50:15;;;;;;;23.40;10.63;;;8.40;99.90;;;;;;5014856;28;20136;-94
2022/01/04 01:52:48;;;;;;;26.37;10.93;;;8.00;99.90;;;;;;5014898;28;20045;-93
2022/01/04 01:55:15;;;;;;;22.80;12.27;;;7.70;99.90;;;;;;5015235;28;20045;-93
2022/01/04 01:57:44;;;;;;;26.97;11.93;;;7.50;99.90;;;;;;5014207;28;20050;-93
2022/01/04 02:00:12;;;;;;;23.60;12.07;;;9.10;99.90;;;;;;5015099;28;20104;-93
2022/01/04 02:02:41;;;;;;;24.70;11.63;;;7.90;99.90;;;;;;5015638;28;20049;-92
2022/01/04 02:05:11;;;;;;;30.33;12.03;;;7.90;99.90;;;;;;5015154;28;20140;-93
2022/01/04 02:07:43;;;;;;;29.50;11.70;;;7.70;99.90;;;;;;5014303;28;20153;-93
2022/01/04 02:10:12;;;;;;;30.77;12.50;;;7.50;99.90;;;;;;5017063;28;20053;-93
2022/01/04 02:15:45;;;;;;;28.90;13.13;;;6.40;99.90;;;;;;5019115;28;20045;-93
2022/01/04 02:18:16;;;;;;;25.50;12.83;;;7.60;99.90;;;;;;5018172;28;20060;-93
2022/01/04 02:20:45;;;;;;;30.03;13.40;;;8.30;99.90;;;;;;5019015;28;20111;-92
2022/01/04 02:23:22;;;;;;;24.73;12.17;;;7.40;99.90;;;;;;5018609;28;20485;-93
2022/01/04 02:25:49;;;;;;;31.57;14.30;;;7.20;99.90;;;;;;5018124;28;20103;-93
2022/01/04 02:28:18;;;;;;;27.63;13.53;;;7.00;99.90;;;;;;5018826;28;20104;-94
2022/01/04 02:31:14;;;;;;;31.73;14.93;;;6.90;99.90;;;;;;5035523;28;20032;-92
2022/01/04 02:33:41;;;;;;;30.20;15.30;;;7.10;99.90;;;;;;5323498;22;20049;-93
2022/01/04 02:36:10;;;;;;;30.37;14.23;;;8.10;99.90;;;;;;5024087;23;20165;-93
2022/01/04 02:38:38;;;;;;;32.63;14.63;;;7.80;99.90;;;;;;5065287;22;20053;-93
2022/01/04 02:41:29;;;;;;;27.67;14.93;;;7.00;99.90;;;;;;5169433;23;20054;-93
2022/01/04 02:43:55;;;;;;;30.37;14.90;;;7.40;99.90;;;;;;4998624;28;20097;-93
2022/01/04 02:46:27;;;;;;;30.10;14.60;;;8.10;99.90;;;;;;4998565;28;20077;-93
2022/01/04 02:48:56;;;;;;;33.70;16.33;;;7.70;99.90;;;;;;4998180;28;20133;-93
2022/01/04 02:51:27;;;;;;;32.10;15.37;;;7.30;99.90;;;;;;4998619;28;20081;-93
2022/01/04 02:53:59;;;;;;;34.33;15.63;;;7.70;99.90;;;;;;4997771;28;20086;-92
2022/01/04 02:56:28;;;;;;;31.33;15.57;;;6.90;99.90;;;;;;4998965;28;20438;-94
2022/01/04 03:01:40;;;;;;;36.77;16.00;;;7.10;99.90;;;;;;5027347;22;20046;-93
2022/01/04 03:04:10;;;;;;;35.90;17.00;;;6.90;99.90;;;;;;5006096;23;20510;-93
2022/01/04 03:06:37;;;;;;;33.87;16.27;;;7.00;99.90;;;;;;4984069;23;20051;-93
2022/01/04 03:13:37;;;;;;;34.50;16.70;;;8.60;99.90;;;;;;5225636;22;20092;-94
2022/01/04 03:21:05;;;;;;;36.00;16.83;;;7.20;99.90;;;;;;5001786;28;20074;-94
2022/01/04 03:28:14;;;;;;;34.37;15.57;;;6.70;99.90;;;;;;5014303;28;20107;-94
2022/01/04 03:30:53;;;;;;;34.67;16.03;;;6.50;99.90;;;;;;4987141;23;20092;-94
2022/01/04 03:33:21;;;;;;;32.53;15.33;;;7.00;99.90;;;;;;5040040;23;20050;-93
2022/01/04 03:35:51;;;;;;;37.03;16.33;;;6.60;99.90;;;;;;4985993;23;20181;-94
2022/01/04 03:38:20;;;;;;;36.57;17.23;;;7.20;99.90;;;;;;5017999;22;20116;-92
2022/01/04 03:40:54;;;;;;;36.70;17.37;;;7.30;99.90;;;;;;5212942;23;20939;31
2022/01/04 03:43:22;;;;;;;34.50;18.35;;;7.20;99.90;;;;;;5004989;23;20108;-94
2022/01/04 03:45:50;;;;;;;35.33;17.00;;;6.90;99.90;;;;;;5002116;23;20382;-93
2022/01/04 03:48:20;;;;;;;34.27;17.07;;;7.00;99.90;;;;;;5028079;23;20068;-93
2022/01/04 03:50:45;;;;;;;37.70;18.27;;;7.30;99.90;;;;;;4975756;28;20057;-93
2022/01/04 03:53:11;;;;;;;33.77;16.97;;;7.90;99.90;;;;;;4977914;28;20042;-94
2022/01/04 03:55:42;;;;;;;34.80;17.50;;;7.80;99.90;;;;;;4977663;28;20090;-93
2022/01/04 03:58:14;;;;;;;36.10;18.37;;;7.70;99.90;;;;;;4978179;28;20498;-94
2022/01/04 04:00:43;;;;;;;35.73;18.00;;;7.30;99.90;;;;;;4977690;28;20052;-94
2022/01/04 04:03:25;;;;;;;34.60;17.93;;;7.20;99.90;;;;;;4989457;23;20054;-93
2022/01/04 04:05:56;;;;;;;37.10;18.20;;;7.40;99.90;;;;;;4997916;23;20054;-92
2022/01/04 04:08:25;;;;;;;41.30;18.57;;;7.90;99.90;;;;;;5012123;23;20077;-94
2022/01/04 04:10:51;;;;;;;35.73;17.83;;;7.40;99.90;;;;;;4975274;28;20137;-93
2022/01/04 04:13:20;;;;;;;36.57;18.73;;;7.50;99.90;;;;;;4977881;28;20130;-94
2022/01/04 04:15:48;;;;;;;37.40;18.53;;;7.60;99.90;;;;;;4977190;28;20513;-93
2022/01/04 04:18:17;;;;;;;38.77;18.83;;;8.60;99.90;;;;;;4977170;28;20069;-92
2022/01/04 04:20:43;;;;;;;37.60;17.93;;;7.30;99.90;;;;;;4978172;28;20490;-93
2022/01/04 04:23:10;;;;;;;35.87;17.63;;;7.50;99.90;;;;;;4978851;28;20458;-92
2022/01/04 04:25:37;;;;;;;36.57;17.77;;;8.10;99.90;;;;;;5146028;23;20533;-92
2022/01/04 04:31:03;;;;;;;43.00;17.73;;;7.60;99.90;;;;;;5020149;23;20426;-93
2022/01/04 04:34:35;;;;;;;33.57;17.37;;;8.10;99.90;;;;;;5030440;23;20058;-93
2022/01/04 04:55:59;;;;;;;37.20;17.43;;;7.60;99.90;;;;;;5037436;22;20057;-93
2022/01/04 04:58:29;;;;;;;34.30;17.97;;;7.60;99.90;;;;;;5015570;28;20045;-93
2022/01/04 05:00:54;;;;;;;32.17;17.80;;;7.40;99.90;;;;;;5013134;28;20056;-92
2022/01/04 05:03:30;;;;;;;35.73;18.20;;;7.10;99.90;;;;;;5014996;28;20041;-93
2022/01/04 05:06:02;;;;;;;34.80;17.77;;;7.50;99.90;;;;;;5013658;28;20053;-93
2022/01/04 05:08:48;;;;;;;30.70;16.77;;;7.30;99.90;;;;;;5015035;28;20046;-93
2022/01/04 05:11:16;;;;;;;32.57;17.20;;;8.50;99.90;;;;;;5002510;23;20046;-93
2022/01/04 05:13:44;;;;;;;30.77;16.20;;;8.00;99.90;;;;;;4998920;23;20137;-93
2022/01/04 05:16:11;;;;;;;30.73;16.83;;;7.50;99.90;;;;;;5000267;23;20116;-94
2022/01/04 05:18:36;;;;;;;28.70;15.83;;;6.90;99.90;;;;;;5015131;28;20072;-93
2022/01/04 05:21:06;;;;;;;31.37;17.00;;;7.30;99.90;;;;;;5014788;28;20049;-93
2022/01/04 05:23:32;;;;;;;33.67;16.60;;;7.10;99.90;;;;;;5015793;28;20514;-93
2022/01/04 05:26:07;;;;;;;34.77;17.90;;;8.00;99.90;;;;;;5015433;28;20041;-93
2022/01/04 05:28:38;;;;;;;33.30;17.83;;;7.40;99.90;;;;;;5014802;28;20056;-92
2022/01/04 05:31:05;;;;;;;31.43;16.50;;;6.90;99.90;;;;;;5014854;28;20461;-94
2022/01/04 05:33:36;;;;;;;31.63;15.53;;;7.80;99.90;;;;;;5015556;28;20060;-93
2022/01/04 05:36:07;;;;;;;29.53;14.07;;;7.30;99.90;;;;;;5015471;28;20045;-93
2022/01/04 05:38:40;;;;;;;27.17;14.47;;;8.30;99.90;;;;;;5015356;28;20081;-93
2022/01/04 05:41:09;;;;;;;28.23;14.43;;;7.60;99.90;;;;;;5014787;28;20056;-94
2022/01/04 05:43:38;;;;;;;21.63;12.67;;;8.20;99.90;;;;;;5014746;28;20475;-93
2022/01/04 05:46:09;;;;;;;27.90;13.57;;;8.50;99.90;;;;;;5014687;28;20396;-93
2022/01/04 05:48:41;;;;;;;31.53;13.97;;;7.30;99.90;;;;;;5014786;28;20092;-93
2022/01/04 05:51:10;;;;;;;28.27;14.13;;;7.60;99.90;;;;;;5015387;28;20568;-94
2022/01/04 05:53:42;;;;;;;25.50;14.30;;;7.50;99.90;;;;;;5015395;28;20085;-93
2022/01/04 05:56:11;;;;;;;32.77;16.20;;;7.60;99.90;;;;;;5014293;28;20128;-93
2022/01/04 05:58:42;;;;;;;30.60;15.93;;;8.60;99.90;;;;;;5015575;28;20045;-93
2022/01/04 06:01:08;;;;;;;35.00;18.17;;;7.50;99.90;;;;;;5015189;28;20042;-94
2022/01/04 06:03:36;;;;;;;31.50;17.30;;;7.70;99.90;;;;;;5015314;28;20037;-94
2022/01/04 06:06:04;;;;;;;32.30;18.47;;;7.70;99.90;;;;;;5015252;28;20048;-93
2022/01/04 06:08:36;;;;;;;33.23;18.27;;;7.60;99.90;;;;;;5014776;28;20145;-94
2022/01/04 06:11:08;;;;;;;34.63;17.73;;;8.20;99.90;;;;;;5015116;28;20046;-93
2022/01/04 06:16:35;;;;;;;30.77;17.27;;;7.40;99.90;;;;;;5028999;28;20049;-94
2022/01/04 06:19:02;;;;;;;35.97;17.30;;;7.40;99.90;;;;;;5267982;23;20034;-93
2022/01/04 06:25:05;;;;;;;33.33;16.77;;;6.90;99.90;;;;;;5027082;22;20132;-93
2022/01/04 06:28:05;;;;;;;33.15;16.85;;;7.50;99.90;;;;;;5011364;23;20060;-93
2022/01/04 06:30:33;;;;;;;30.43;16.00;;;7.50;99.90;;;;;;4991420;23;20054;-93
2022/01/04 06:36:56;;;;;;;32.50;17.37;;;7.60;99.90;;;;;;4933028;29;20424;-92
2022/01/04 06:39:28;;;;;;;33.20;17.83;;;7.50;99.90;;;;;;4952228;23;20058;-95
2022/01/04 06:45:27;;;;;;;30.73;16.27;;;7.50;99.90;;;;;;5016365;22;20085;-92
2022/01/04 06:48:59;;;;;;;32.37;15.53;;;6.90;99.90;;;;;;5008979;28;20053;-93
2022/01/04 06:51:31;;;;;;;27.80;16.00;;;7.50;99.90;;;;;;4993947;28;20065;-94
2022/01/04 06:56:29;;;;;;;33.63;16.00;;;7.60;99.90;;;;;;5019329;22;20064;-93
2022/01/04 06:58:57;;;;;;;31.97;16.33;;;7.00;99.90;;;;;;4998621;28;20069;-93
2022/01/04 07:01:28;;;;;;;33.00;16.73;;;8.20;99.90;;;;;;4998800;28;20494;-93
2022/01/04 07:03:57;;;;;;;30.63;15.83;;;7.60;99.90;;;;;;4998435;28;20047;-92
2022/01/04 07:06:28;;;;;;;30.20;16.47;;;7.40;99.90;;;;;;4998213;28;20490;-93
2022/01/04 07:09:00;;;;;;;30.27;16.50;;;8.20;99.90;;;;;;4998537;28;20503;-93
2022/01/04 07:11:31;;;;;;;34.20;17.87;;;8.50;99.90;;;;;;4998149;28;20173;-94
2022/01/04 07:14:03;;;;;;;31.30;16.20;;;7.40;99.90;;;;;;4997758;28;20045;-93
2022/01/04 07:16:29;;;;;;;31.83;17.23;;;8.50;99.90;;;;;;4998344;28;20037;-90
2022/01/04 07:19:29;;;;;;;36.90;18.40;;;7.50;99.90;;;;;;4998715;28;20494;-95
2022/01/04 07:21:59;;;;;;;41.63;18.53;;;7.60;99.90;;;;;;4900051;29;20657;-88
2022/01/04 07:24:29;;;;;;;36.30;19.43;;;7.70;99.90;;;;;;4899586;29;20053;-87
2022/01/04 07:26:54;;;;;;;35.80;18.90;;;7.50;99.90;;;;;;4890876;29;20056;-90
2022/01/04 07:29:20;;;;;;;37.03;19.80;;;8.40;99.90;;;;;;4880096;29;20172;-90
2022/01/04 07:31:49;;;;;;;40.80;20.27;;;7.60;99.90;;;;;;4888233;28;20053;-89
2022/01/04 07:34:21;;;;;;;40.00;21.90;;;7.40;99.90;;;;;;4977719;28;20061;-89
2022/01/04 07:36:52;;;;;;;37.70;20.50;;;7.60;99.90;;;;;;4977679;28;20047;-89
2022/01/04 07:39:21;;;;;;;33.87;19.03;;;8.10;99.90;;;;;;4978139;28;20054;-89
2022/01/04 07:41:55;;;;;;;38.10;21.70;;;8.60;99.90;;;;;;4977448;28;20042;-90
2022/01/04 07:44:23;;;;;;;38.00;20.00;;;7.50;99.90;;;;;;4977875;28;20054;-87
2022/01/04 07:46:57;;;;;;;36.77;18.80;;;6.60;99.90;;;;;;4978406;28;20050;-91
2022/01/04 07:49:23;;;;;;;32.00;17.57;;;7.40;99.90;;;;;;4985266;28;20057;-92
2022/01/04 07:52:01;;;;;;;35.13;18.90;;;7.90;99.90;;;;;;5007414;28;20022;-91
2022/01/04 07:54:36;;;;;;;32.10;18.53;;;7.40;99.90;;;;;;4987277;28;20521;-94
2022/01/04 07:57:03;;;;;;;36.47;20.00;;;7.50;99.90;;;;;;4993162;28;20089;-91
2022/01/04 07:59:34;;;;;;;35.77;18.13;;;7.40;99.90;;;;;;4984242;28;20081;-92
2022/01/04 08:02:03;;;;;;;38.43;19.03;;;7.30;99.90;;;;;;4988863;28;20042;-92
2022/01/04 08:04:29;;;;;;;34.23;18.33;;;7.40;99.90;;;;;;4988024;28;20406;-90
2022/01/04 08:06:57;;;;;;;31.27;17.00;;;7.50;99.90;;;;;;5003332;28;20042;-90
2022/01/04 08:09:31;;;;;;;34.63;18.73;;;8.70;99.90;;;;;;4998865;28;20046;-89
2022/01/04 08:12:06;;;;;;;40.10;19.20;;;7.40;99.90;;;;;;4998260;28;20050;-89
2022/01/04 08:14:32;;;;;;;34.20;18.37;;;7.50;99.90;;;;;;4985000;28;20049;-91
2022/01/04 08:17:07;;;;;;;37.67;21.30;;;7.70;99.90;;;;;;4990710;28;20049;-90
2022/01/04 08:19:36;;;;;;;37.07;18.97;;;7.30;99.90;;;;;;4984442;28;20041;-89
2022/01/04 08:22:08;;;;;;;38.83;22.03;;;7.50;99.90;;;;;;4995492;28;20461;-90
2022/01/04 08:24:36;;;;;;;38.87;19.63;;;7.20;99.90;;;;;;4996673;28;20545;-90
2022/01/04 08:27:08;;;;;;;41.20;21.97;;;7.40;99.90;;;;;;4996695;28;20045;-89
2022/01/04 08:29:40;;;;;;;39.17;20.93;;;7.00;99.90;;;;;;4995981;28;20074;-88
2022/01/04 08:32:12;;;;;;;37.67;19.73;;;7.60;99.90;;;;;;4996746;28;20049;-89
2022/01/04 08:34:41;;;;;;;40.77;20.47;;;7.20;99.90;;;;;;5001960;28;20049;-89
2022/01/04 08:37:19;;;;;;;40.00;19.33;;;7.20;99.90;;;;;;4980615;28;20096;-88
2022/01/04 08:39:46;;;;;;;40.37;19.80;;;7.90;99.90;;;;;;4985787;28;20038;-89
2022/01/04 08:42:22;;;;;;;40.10;20.73;;;8.00;99.90;;;;;;5008349;28;20089;-88
2022/01/04 08:44:51;;;;;;;38.77;18.83;;;7.20;99.90;;;;;;4995157;28;20029;-88
2022/01/04 08:47:20;;;;;;;40.20;19.97;;;7.20;99.90;;;;;;4996412;28;20062;-89
2022/01/04 08:49:52;;;;;;;55.27;35.13;;;7.30;99.90;;;;;;4995443;28;20038;-89
2022/01/04 08:52:21;;;;;;;54.60;32.43;;;6.70;99.90;;;;;;4997372;28;20481;-89
2022/01/04 08:54:50;;;;;;;43.97;22.00;;;7.90;99.90;;;;;;4995352;28;20494;-89
2022/01/04 08:57:41;;;;;;;49.03;25.43;;;7.40;99.90;;;;;;5013501;28;20042;-89
2022/01/04 09:00:09;;;;;;;68.87;37.23;;;7.40;99.90;;;;;;4995743;28;20105;-88
2022/01/04 09:02:35;;;;;;;79.67;41.70;;;7.40;99.90;;;;;;4995959;28;20494;-91
2022/01/04 09:05:04;;;;;;;57.13;30.57;;;7.40;99.90;;;;;;4995034;28;20038;-87
2022/01/04 09:07:30;;;;;;;44.53;24.83;;;7.40;99.90;;;;;;4992152;28;20525;-87
2022/01/04 09:09:55;;;;;;;33.77;17.13;;;7.40;99.90;;;;;;4984153;28;20037;-88
2022/01/04 09:12:29;;;;;;;39.27;23.53;;;7.50;99.90;;;;;;4986079;28;20041;-87
2022/01/04 09:20:12;;;;;;;38.93;20.90;;;7.50;99.90;;;;;;4939572;28;20502;-87
2022/01/04 09:22:39;;;;;;;35.57;17.37;;;7.50;99.90;;;;;;4981814;28;20096;-87
2022/01/04 09:25:06;;;;;;;42.43;24.20;;;7.50;99.90;;;;;;4993612;28;20040;-87
2022/01/04 09:27:32;;;;;;;35.13;19.53;;;7.50;99.90;;;;;;4976998;28;20054;-90
2022/01/04 09:30:02;;;;;;;35.40;19.63;;;7.60;99.90;;;;;;4975834;28;20057;-89
2022/01/04 09:32:28;;;;;;;37.20;19.10;;;7.50;99.90;;;;;;4976068;28;20053;-89
2022/01/04 09:34:54;;;;;;;38.70;20.03;;;7.50;99.90;;;;;;4975157;28;20054;-87
2022/01/04 09:37:24;;;;;;;38.87;21.03;;;7.60;99.90;;;;;;4975797;28;20116;-91
2022/01/04 09:39:53;;;;;;;38.90;20.53;;;7.40;99.90;;;;;;4993048;28;20045;-88
2022/01/04 09:42:22;;;;;;;35.47;18.67;;;7.40;99.90;;;;;;4976038;28;20509;-88
2022/01/04 09:44:53;;;;;;;45.17;26.00;;;7.40;99.90;;;;;;4975499;28;20038;-88
2022/01/04 09:47:22;;;;;;;39.30;20.30;;;7.40;99.90;;;;;;4975206;28;20050;-88
2022/01/04 09:49:54;;;;;;;39.97;24.87;;;7.50;99.90;;;;;;4975460;28;20458;-88
2022/01/04 09:52:21;;;;;;;37.07;21.43;;;7.30;99.90;;;;;;4976057;28;20045;-90
2022/01/04 09:54:51;;;;;;;36.80;19.27;;;7.40;99.90;;;;;;4974536;28;20052;-88
2022/01/04 09:57:17;;;;;;;25.57;13.07;;;7.30;99.90;;;;;;4975987;28;20050;-89
2022/01/04 09:59:43;;;;;;;31.67;17.00;;;7.40;99.90;;;;;;4975460;28;20482;-88
2022/01/04 10:02:17;;;;;;;14.93;6.13;;;7.20;99.90;;;;;;4976314;28;20050;-87
2022/01/04 10:04:43;;;;;;;20.15;8.88;;;7.20;99.90;;;;;;4978154;28;20540;-88
2022/01/04 10:07:08;;;;;;;21.33;10.80;;;7.10;99.90;;;;;;4975621;28;20125;-88
2022/01/04 10:09:48;;;;;;;15.90;8.13;;;7.00;99.90;;;;;;4974857;28;20078;-87
2022/01/04 10:12:19;;;;;;;16.50;6.57;;;7.00;99.90;;;;;;4992945;28;20074;-87
2022/01/04 10:14:47;;;;;;;14.17;6.30;;;6.90;99.90;;;;;;4974986;28;20062;-88
2022/01/04 10:17:21;;;;;;;15.83;5.87;;;6.70;99.90;;;;;;4975139;28;20042;-88
2022/01/04 10:19:48;;;;;;;15.18;4.72;;;6.60;99.90;;;;;;4975045;28;20094;-88
2022/01/04 10:22:19;;;;;;;15.27;5.13;;;6.70;99.90;;;;;;4974927;28;20050;-88
2022/01/04 10:24:55;;;;;;;12.87;5.40;;;6.70;99.90;;;;;;4975512;28;20390;-87
2022/01/04 10:27:38;;;;;;;13.10;6.00;;;6.70;99.90;;;;;;4980111;28;20125;-88
2022/01/04 10:30:13;;;;;;;13.90;7.47;;;6.80;99.90;;;;;;4984454;28;20056;-88
2022/01/04 10:33:07;;;;;;;13.53;5.97;;;6.70;99.90;;;;;;4987199;28;20121;-89
2022/01/04 10:35:34;;;;;;;16.60;7.80;;;6.80;99.90;;;;;;4987180;28;20133;-90
2022/01/04 10:38:14;;;;;;;21.83;11.77;;;6.80;99.90;;;;;;4987045;28;20286;-89
2022/01/04 10:41:01;;;;;;;18.70;10.00;;;6.80;99.90;;;;;;4979294;28;20069;-89
2022/01/04 10:43:36;;;;;;;18.53;7.80;;;6.80;99.90;;;;;;4985682;28;20081;-88
2022/01/04 10:46:18;;;;;;;18.47;8.77;;;6.80;99.90;;;;;;4982279;28;20058;-89
2022/01/04 10:48:46;;;;;;;17.77;8.87;;;6.90;99.90;;;;;;4986442;28;20497;-90
2022/01/04 10:51:23;;;;;;;18.00;7.30;;;6.70;99.90;;;;;;4988732;28;20076;-91
2022/01/04 10:53:55;;;;;;;16.67;8.03;;;7.00;99.90;;;;;;4989278;28;20382;-91
2022/01/04 10:56:33;;;;;;;19.37;7.53;;;6.90;99.90;;;;;;5003106;28;20073;-89
2022/01/04 10:59:02;;;;;;;18.70;7.40;;;7.00;99.90;;;;;;4994432;28;20520;-90
2022/01/04 11:01:47;;;;;;;17.97;7.10;;;7.00;99.90;;;;;;4997717;28;20132;-90
2022/01/04 11:04:20;;;;;;;17.10;7.13;;;6.80;99.90;;;;;;4998229;28;20096;-90
2022/01/04 11:06:47;;;;;;;20.52;8.23;;;6.80;99.90;;;;;;4997832;28;20060;-89
2022/01/04 11:09:22;;;;;;;13.20;5.73;;;6.80;99.90;;;;;;4994467;28;20047;-89
2022/01/04 11:11:55;;;;;;;15.07;5.33;;;6.70;99.90;;;;;;4997460;28;20045;-88
2022/01/04 11:14:25;;;;;;;14.55;4.70;;;6.70;99.90;;;;;;4998312;28;20053;-89
2022/01/04 11:16:57;;;;;;;14.57;4.00;;;6.70;99.90;;;;;;4997323;28;20052;-88
2022/01/04 11:19:26;;;;;;;11.80;3.37;;;7.40;99.90;;;;;;4997286;28;20074;-88
2022/01/04 11:21:59;;;;;;;11.33;3.13;;;6.50;99.90;;;;;;4997796;28;20131;-88
2022/01/04 11:24:27;;;;;;;9.43;3.07;;;6.50;99.90;;;;;;4998157;28;20046;-88
2022/01/04 11:26:59;;;;;;;9.80;3.13;;;6.40;99.90;;;;;;4985601;28;20387;-88
2022/01/04 11:29:30;;;;;;;10.83;2.77;;;6.40;99.90;;;;;;4977745;28;20050;-88
2022/01/04 11:32:03;;;;;;;10.37;3.00;;;6.40;99.90;;;;;;4995422;28;20380;-87
2022/01/04 11:34:59;;;;;;;10.53;2.90;;;6.40;99.90;;;;;;4977754;28;20050;-88
2022/01/04 11:37:31;;;;;;;6.93;2.10;;;6.30;99.90;;;;;;4978210;28;20069;-88
2022/01/04 11:39:57;;;;;;;10.60;2.40;;;6.10;99.90;;;;;;4977262;28;20096;-88
2022/01/04 11:42:35;;;;;;;7.80;2.20;;;6.20;99.90;;;;;;4977561;28;20046;-87
2022/01/04 11:45:02;;;;;;;8.20;2.20;;;6.20;99.90;;;;;;4996637;28;20050;-89
2022/01/04 11:47:30;;;;;;;10.47;2.30;;;6.20;99.90;;;;;;4996683;28;20401;-88
2022/01/04 11:50:20;;;;;;;9.20;2.33;;;6.30;99.90;;;;;;4997087;28;20054;-91
2022/01/04 11:53:05;;;;;;;8.07;2.10;;;6.30;99.90;;;;;;4996365;28;20481;-94
2022/01/04 11:55:34;;;;;;;9.83;2.20;;;6.10;99.90;;;;;;4994609;28;20125;-89
2022/01/04 11:58:14;;;;;;;8.20;2.00;;;6.10;99.90;;;;;;5009475;28;20053;-89
2022/01/04 12:01:04;;;;;;;9.77;2.87;;;7.10;99.90;;;;;;4998026;28;20053;-89
2022/01/04 12:04:04;;;;;;;12.13;2.38;;;6.00;99.90;;;;;;5014729;28;20045;-89
2022/01/04 12:06:43;;;;;;;9.07;2.03;;;6.20;99.90;;;;;;5010043;28;20053;-88
2022/01/04 12:09:29;;;;;;;12.00;2.70;;;5.80;99.90;;;;;;4995979;28;20077;-87
2022/01/04 12:11:55;;;;;;;11.73;3.43;;;6.00;99.90;;;;;;4996423;28;20128;-88
2022/01/04 12:14:33;;;;;;;8.13;2.27;;;5.90;99.90;;;;;;4996990;28;20133;-85
2022/01/04 12:17:04;;;;;;;8.93;1.90;;;5.80;99.90;;;;;;4995967;28;20041;-85
2022/01/04 12:19:50;;;;;;;8.07;1.60;;;5.70;99.90;;;;;;5012652;28;20084;-86
2022/01/04 12:22:33;;;;;;;5.63;1.47;;;5.60;99.90;;;;;;4996114;28;20045;-85
2022/01/04 12:25:05;;;;;;;9.60;1.97;;;5.50;99.90;;;;;;4993383;28;20042;-83
2022/01/04 12:27:32;;;;;;;9.83;3.07;;;5.40;99.90;;;;;;4987279;28;20058;-86
2022/01/04 12:30:26;;;;;;;5.33;1.53;;;5.40;99.90;;;;;;4999515;28;20552;-85
2022/01/04 12:32:52;;;;;;;3.65;1.30;;;5.40;99.90;;;;;;5003613;28;20121;-85
2022/01/04 12:35:18;;;;;;;5.70;1.23;;;5.30;99.90;;;;;;5005363;28;20448;-87
2022/01/04 12:37:44;;;;;;;6.10;1.40;;;5.20;99.90;;;;;;5000982;28;20030;-84
2022/01/04 12:40:10;;;;;;;5.50;1.70;;;5.70;99.90;;;;;;4987550;28;20494;-84
2022/01/04 12:42:40;;;;;;;8.37;2.20;;;5.30;99.90;;;;;;5009332;28;20124;-84
2022/01/04 12:45:12;;;;;;;9.50;1.70;;;5.30;99.90;;;;;;5009673;28;20117;-84
2022/01/04 12:47:47;;;;;;;9.23;3.00;;;5.20;99.90;;;;;;4979794;28;20072;-84
2022/01/04 12:50:12;;;;;;;7.03;1.80;;;5.30;99.90;;;;;;5009603;28;20120;-84
2022/01/04 12:52:38;;;;;;;8.03;2.00;;;5.20;99.90;;;;;;4991844;28;20548;-84
2022/01/04 12:55:11;;;;;;;8.30;2.47;;;6.40;99.90;;;;;;4985920;28;20490;-85
2022/01/04 12:57:42;;;;;;;6.70;1.83;;;5.10;99.90;;;;;;5001395;28;20041;-86
2022/01/04 13:00:14;;;;;;;6.37;2.00;;;4.90;99.90;;;;;;5002943;28;20048;-85
2022/01/04 13:02:49;;;;;;;7.77;2.37;;;5.00;99.90;;;;;;4993859;28;20064;-85
2022/01/04 13:05:23;;;;;;;7.77;2.63;;;4.80;99.90;;;;;;4986129;28;20056;-85
2022/01/04 13:07:49;;;;;;;;;;;4.80;99.90;;;;;;4985011;28;20038;-85
2022/01/04 13:10:15;;;;;;;6.10;1.50;;;4.60;99.90;;;;;;4995844;28;19975;-86
2022/01/04 13:12:48;;;;;;;7.23;1.70;;;3.90;99.90;;;;;;5012371;28;20042;-85
2022/01/04 13:15:16;;;;;;;7.43;1.80;;;4.60;99.90;;;;;;5012659;28;20100;-86
2022/01/04 13:17:43;;;;;;;6.07;1.40;;;4.60;99.90;;;;;;5012779;28;20132;-84
2022/01/04 13:20:28;;;;;;;5.30;1.20;;;4.50;99.90;;;;;;4995431;28;20060;-83
2022/01/04 13:22:54;;;;;;;6.23;1.30;;;4.40;99.90;;;;;;4995140;28;20504;-85
2022/01/04 13:25:20;;;;;;;7.87;1.30;;;4.40;99.90;;;;;;4996312;28;20049;-84
2022/01/04 13:27:46;;;;;;;7.87;1.60;;;4.50;99.90;;;;;;4975712;28;20042;-84
2022/01/04 13:30:22;;;;;;;8.30;1.50;;;4.40;99.90;;;;;;4975824;28;20046;-86
2022/01/04 13:32:52;;;;;;;6.40;1.30;;;4.60;99.90;;;;;;4992508;28;20196;-85
2022/01/04 13:35:48;;;;;;;5.93;1.50;;;4.60;99.90;;;;;;4993262;28;20112;-90
2022/01/04 13:38:26;;;;;;;6.23;1.60;;;4.70;99.90;;;;;;4974626;28;20479;-86
2022/01/04 13:40:55;;;;;;;6.50;1.30;;;4.60;99.90;;;;;;4992423;28;20046;-86
2022/01/04 13:43:35;;;;;;;5.60;1.40;;;4.60;99.90;;;;;;4975583;28;20046;-86
2022/01/04 13:46:09;;;;;;;10.23;1.60;;;4.60;99.90;;;;;;4975553;28;20102;-86
2022/01/04 13:48:41;;;;;;;9.73;1.43;;;4.60;99.90;;;;;;4993319;28;20387;-86
2022/01/04 13:51:12;;;;;;;8.27;1.73;;;4.70;99.90;;;;;;4975869;28;20046;-86
2022/01/04 13:53:42;;;;;;;41.70;16.23;;;3.60;99.90;;;;;;4975865;28;20544;-86
2022/01/04 13:56:11;;;;;;;12.07;3.80;;;4.70;99.90;;;;;;4975584;28;20062;-86
2022/01/04 13:58:47;;;;;;;10.67;2.70;;;4.80;99.90;;;;;;4975723;28;20581;-87
2022/01/04 14:01:43;;;;;;;8.97;1.83;;;4.80;99.90;;;;;;4977222;28;20552;-87
2022/01/04 14:04:09;;;;;;;11.73;3.80;;;4.80;99.90;;;;;;4983770;28;20085;-87
2022/01/04 14:06:38;;;;;;;10.77;4.43;;;4.70;99.90;;;;;;4997203;28;20050;-87
2022/01/04 14:09:42;;;;;;;10.97;1.80;;;4.60;99.90;;;;;;5005424;28;20050;-88
2022/01/04 14:12:11;;;;;;;9.25;1.73;;;4.90;99.90;;;;;;5012287;28;20497;-85
2022/01/04 14:14:46;;;;;;;7.90;1.60;;;4.70;99.90;;;;;;5016018;28;20088;-85
2022/01/04 14:17:25;;;;;;;12.30;1.83;;;4.70;99.90;;;;;;5009778;28;20346;-85
2022/01/04 14:20:02;;;;;;;8.40;1.70;;;4.60;99.90;;;;;;4992018;28;20369;-85
2022/01/04 14:22:33;;;;;;;10.73;2.13;;;4.70;99.90;;;;;;4996508;28;20046;-86
2022/01/04 14:25:09;;;;;;;9.47;1.80;;;4.60;99.90;;;;;;4996419;28;20054;-85